sensor_id;sensor_type;location;lat;lon;timestamp;P1;durP1;ratioP1;P2;durP2;ratioP2
5977;SDS011;3015;51.390;12.256;2023-01-09T00:00:34;9.25;;;8.55;;
5977;SDS011;3015;51.390;12.256;2023-01-09T00:03:00;8.87;;;8.10;;
5977;SDS011;3015;51.390;12.256;2023-01-09T00:05:25;8.83;;;8.03;;
5977;SDS011;3015;51.390;12.256;2023-01-09T00:07:51;8.87;;;8.00;;
5977;SDS011;3015;51.390;12.256;2023-01-09T00:10:17;8.97;;;8.07;;
5977;SDS011;3015;51.390;12.256;2023-01-09T00:12:42;9.60;;;8.60;;
5977;SDS011;3015;51.390;12.256;2023-01-09T00:15:08;11.40;;;8.67;;
5977;SDS011;3015;51.390;12.256;2023-01-09T00:17:34;9.77;;;8.60;;
5977;SDS011;3015;51.390;12.256;2023-01-09T00:20:00;8.57;;;7.77;;
5977;SDS011;3015;51.390;12.256;2023-01-09T00:22:25;9.47;;;8.57;;
5977;SDS011;3015;51.390;12.256;2023-01-09T00:24:51;9.47;;;8.30;;
5977;SDS011;3015;51.390;12.256;2023-01-09T00:27:17;9.90;;;8.50;;
5977;SDS011;3015;51.390;12.256;2023-01-09T00:29:42;10.40;;;8.10;;
5977;SDS011;3015;51.390;12.256;2023-01-09T00:32:10;9.20;;;8.27;;
5977;SDS011;3015;51.390;12.256;2023-01-09T00:34:38;7.93;;;7.22;;
5977;SDS011;3015;51.390;12.256;2023-01-09T00:37:05;9.27;;;8.48;;
5977;SDS011;3015;51.390;12.256;2023-01-09T00:39:36;8.68;;;7.93;;
5977;SDS011;3015;51.390;12.256;2023-01-09T00:42:03;8.25;;;7.50;;
5977;SDS011;3015;51.390;12.256;2023-01-09T00:44:32;8.13;;;7.35;;
5977;SDS011;3015;51.390;12.256;2023-01-09T00:47:10;7.97;;;7.18;;
5977;SDS011;3015;51.390;12.256;2023-01-09T00:49:40;8.25;;;7.45;;
5977;SDS011;3015;51.390;12.256;2023-01-09T00:52:08;8.60;;;7.80;;
5977;SDS011;3015;51.390;12.256;2023-01-09T00:54:35;8.30;;;7.60;;
5977;SDS011;3015;51.390;12.256;2023-01-09T00:57:02;8.30;;;7.50;;
5977;SDS011;3015;51.390;12.256;2023-01-09T00:59:27;8.47;;;7.57;;
5977;SDS011;3015;51.390;12.256;2023-01-09T01:01:53;7.97;;;7.17;;
5977;SDS011;3015;51.390;12.256;2023-01-09T01:04:18;7.83;;;7.13;;
5977;SDS011;3015;51.390;12.256;2023-01-09T01:07:03;8.18;;;7.47;;
5977;SDS011;3015;51.390;12.256;2023-01-09T01:09:47;8.45;;;7.40;;
5977;SDS011;3015;51.390;12.256;2023-01-09T01:12:12;8.50;;;7.80;;
5977;SDS011;3015;51.390;12.256;2023-01-09T01:14:38;8.60;;;7.80;;
5977;SDS011;3015;51.390;12.256;2023-01-09T01:17:04;7.90;;;7.30;;
5977;SDS011;3015;51.390;12.256;2023-01-09T01:19:30;8.27;;;7.22;;
5977;SDS011;3015;51.390;12.256;2023-01-09T01:21:56;8.95;;;8.07;;
5977;SDS011;3015;51.390;12.256;2023-01-09T01:24:22;8.83;;;8.00;;
5977;SDS011;3015;51.390;12.256;2023-01-09T01:26:48;8.30;;;7.60;;
5977;SDS011;3015;51.390;12.256;2023-01-09T01:29:13;7.90;;;7.20;;
5977;SDS011;3015;51.390;12.256;2023-01-09T01:31:39;8.13;;;7.43;;
5977;SDS011;3015;51.390;12.256;2023-01-09T01:34:04;7.77;;;7.10;;
5977;SDS011;3015;51.390;12.256;2023-01-09T01:36:30;11.17;;;7.73;;
5977;SDS011;3015;51.390;12.256;2023-01-09T01:38:56;7.53;;;6.82;;
5977;SDS011;3015;51.390;12.256;2023-01-09T01:41:22;8.30;;;7.50;;
5977;SDS011;3015;51.390;12.256;2023-01-09T01:44:00;9.23;;;8.32;;
5977;SDS011;3015;51.390;12.256;2023-01-09T01:46:29;8.02;;;7.30;;
5977;SDS011;3015;51.390;12.256;2023-01-09T01:51:31;7.13;;;6.45;;
5977;SDS011;3015;51.390;12.256;2023-01-09T01:54:02;7.80;;;7.10;;
5977;SDS011;3015;51.390;12.256;2023-01-09T01:56:35;8.25;;;7.45;;
5977;SDS011;3015;51.390;12.256;2023-01-09T01:59:12;7.30;;;6.60;;
5977;SDS011;3015;51.390;12.256;2023-01-09T02:01:45;8.05;;;7.35;;
5977;SDS011;3015;51.390;12.256;2023-01-09T02:04:14;9.18;;;8.30;;
5977;SDS011;3015;51.390;12.256;2023-01-09T02:06:40;8.07;;;7.37;;
5977;SDS011;3015;51.390;12.256;2023-01-09T02:09:08;9.00;;;8.07;;
5977;SDS011;3015;51.390;12.256;2023-01-09T02:11:42;7.72;;;6.97;;
5977;SDS011;3015;51.390;12.256;2023-01-09T02:14:09;6.97;;;6.28;;
5977;SDS011;3015;51.390;12.256;2023-01-09T02:22:39;8.27;;;7.47;;
5977;SDS011;3015;51.390;12.256;2023-01-09T02:25:37;7.55;;;6.82;;
5977;SDS011;3015;51.390;12.256;2023-01-09T02:29:13;8.32;;;7.55;;
5977;SDS011;3015;51.390;12.256;2023-01-09T02:31:24;8.70;;;6.32;;
5977;SDS011;3015;51.390;12.256;2023-01-09T02:34:12;8.15;;;7.55;;
5977;SDS011;3015;51.390;12.256;2023-01-09T02:37:05;7.57;;;6.82;;
5977;SDS011;3015;51.390;12.256;2023-01-09T02:39:42;6.80;;;6.10;;
5977;SDS011;3015;51.390;12.256;2023-01-09T02:42:22;5.90;;;5.40;;
5977;SDS011;3015;51.390;12.256;2023-01-09T02:44:49;6.65;;;6.00;;
5977;SDS011;3015;51.390;12.256;2023-01-09T02:50:00;6.70;;;6.10;;
5977;SDS011;3015;51.390;12.256;2023-01-09T02:55:33;6.40;;;5.80;;
5977;SDS011;3015;51.390;12.256;2023-01-09T03:07:20;7.57;;;6.78;;
5977;SDS011;3015;51.390;12.256;2023-01-09T03:09:51;8.32;;;7.35;;
5977;SDS011;3015;51.390;12.256;2023-01-09T03:12:23;8.60;;;7.32;;
5977;SDS011;3015;51.390;12.256;2023-01-09T03:14:52;7.88;;;7.18;;
5977;SDS011;3015;51.390;12.256;2023-01-09T03:17:42;8.00;;;7.30;;
5977;SDS011;3015;51.390;12.256;2023-01-09T03:20:09;8.02;;;7.22;;
5977;SDS011;3015;51.390;12.256;2023-01-09T03:22:39;7.40;;;6.70;;
5977;SDS011;3015;51.390;12.256;2023-01-09T03:25:09;8.52;;;7.63;;
5977;SDS011;3015;51.390;12.256;2023-01-09T03:27:36;8.63;;;7.78;;
5977;SDS011;3015;51.390;12.256;2023-01-09T03:30:02;7.57;;;6.97;;
5977;SDS011;3015;51.390;12.256;2023-01-09T03:32:29;9.13;;;8.20;;
5977;SDS011;3015;51.390;12.256;2023-01-09T03:34:54;8.57;;;7.67;;
5977;SDS011;3015;51.390;12.256;2023-01-09T03:37:20;8.77;;;7.97;;
5977;SDS011;3015;51.390;12.256;2023-01-09T03:39:45;8.63;;;7.83;;
5977;SDS011;3015;51.390;12.256;2023-01-09T03:42:11;12.03;;;7.30;;
5977;SDS011;3015;51.390;12.256;2023-01-09T03:44:37;9.13;;;8.23;;
5977;SDS011;3015;51.390;12.256;2023-01-09T03:47:02;8.20;;;7.40;;
5977;SDS011;3015;51.390;12.256;2023-01-09T03:49:28;8.00;;;7.20;;
5977;SDS011;3015;51.390;12.256;2023-01-09T03:51:53;8.83;;;7.93;;
5977;SDS011;3015;51.390;12.256;2023-01-09T03:54:19;8.50;;;7.70;;
5977;SDS011;3015;51.390;12.256;2023-01-09T03:56:44;7.70;;;7.00;;
5977;SDS011;3015;51.390;12.256;2023-01-09T03:59:10;8.10;;;7.33;;
5977;SDS011;3015;51.390;12.256;2023-01-09T04:01:36;9.50;;;8.20;;
5977;SDS011;3015;51.390;12.256;2023-01-09T04:04:01;8.37;;;7.57;;
5977;SDS011;3015;51.390;12.256;2023-01-09T04:06:27;10.37;;;7.30;;
5977;SDS011;3015;51.390;12.256;2023-01-09T04:08:52;8.60;;;7.20;;
5977;SDS011;3015;51.390;12.256;2023-01-09T04:11:18;7.03;;;6.50;;
5977;SDS011;3015;51.390;12.256;2023-01-09T04:13:46;8.65;;;6.68;;
5977;SDS011;3015;51.390;12.256;2023-01-09T04:16:11;7.83;;;7.10;;
5977;SDS011;3015;51.390;12.256;2023-01-09T04:18:37;8.00;;;7.20;;
5977;SDS011;3015;51.390;12.256;2023-01-09T04:21:03;6.57;;;6.03;;
5977;SDS011;3015;51.390;12.256;2023-01-09T04:23:28;7.67;;;6.97;;
5977;SDS011;3015;51.390;12.256;2023-01-09T04:25:54;7.57;;;6.30;;
5977;SDS011;3015;51.390;12.256;2023-01-09T04:28:20;8.03;;;7.23;;
5977;SDS011;3015;51.390;12.256;2023-01-09T04:30:45;7.53;;;6.80;;
5977;SDS011;3015;51.390;12.256;2023-01-09T04:33:11;7.63;;;6.93;;
5977;SDS011;3015;51.390;12.256;2023-01-09T04:35:36;6.90;;;6.30;;
5977;SDS011;3015;51.390;12.256;2023-01-09T04:38:02;6.50;;;5.90;;
5977;SDS011;3015;51.390;12.256;2023-01-09T04:40:27;5.90;;;5.40;;
5977;SDS011;3015;51.390;12.256;2023-01-09T04:42:53;6.60;;;5.30;;
5977;SDS011;3015;51.390;12.256;2023-01-09T04:45:19;6.30;;;5.50;;
5977;SDS011;3015;51.390;12.256;2023-01-09T04:47:44;6.17;;;5.47;;
5977;SDS011;3015;51.390;12.256;2023-01-09T04:50:11;6.10;;;5.20;;
5977;SDS011;3015;51.390;12.256;2023-01-09T04:52:37;5.80;;;5.30;;
5977;SDS011;3015;51.390;12.256;2023-01-09T04:55:02;5.80;;;5.20;;
5977;SDS011;3015;51.390;12.256;2023-01-09T04:57:29;7.75;;;5.65;;
5977;SDS011;3015;51.390;12.256;2023-01-09T04:59:55;5.83;;;5.30;;
5977;SDS011;3015;51.390;12.256;2023-01-09T05:02:20;6.07;;;5.47;;
5977;SDS011;3015;51.390;12.256;2023-01-09T05:04:46;8.30;;;6.57;;
5977;SDS011;3015;51.390;12.256;2023-01-09T05:07:12;6.57;;;5.93;;
5977;SDS011;3015;51.390;12.256;2023-01-09T05:09:37;6.77;;;6.07;;
5977;SDS011;3015;51.390;12.256;2023-01-09T05:12:03;6.20;;;5.60;;
5977;SDS011;3015;51.390;12.256;2023-01-09T05:14:29;6.63;;;6.03;;
5977;SDS011;3015;51.390;12.256;2023-01-09T05:16:54;5.90;;;5.40;;
5977;SDS011;3015;51.390;12.256;2023-01-09T05:19:20;7.07;;;6.47;;
5977;SDS011;3015;51.390;12.256;2023-01-09T05:21:46;5.80;;;5.23;;
5977;SDS011;3015;51.390;12.256;2023-01-09T05:24:12;6.40;;;5.80;;
5977;SDS011;3015;51.390;12.256;2023-01-09T05:26:37;6.77;;;6.17;;
5977;SDS011;3015;51.390;12.256;2023-01-09T05:29:03;5.67;;;5.10;;
5977;SDS011;3015;51.390;12.256;2023-01-09T05:31:29;5.53;;;5.03;;
5977;SDS011;3015;51.390;12.256;2023-01-09T05:33:54;5.60;;;5.07;;
5977;SDS011;3015;51.390;12.256;2023-01-09T05:36:22;6.07;;;5.68;;
5977;SDS011;3015;51.390;12.256;2023-01-09T05:38:47;4.97;;;4.57;;
5977;SDS011;3015;51.390;12.256;2023-01-09T05:41:13;5.30;;;4.70;;
5977;SDS011;3015;51.390;12.256;2023-01-09T05:43:38;5.70;;;5.20;;
5977;SDS011;3015;51.390;12.256;2023-01-09T05:46:04;6.50;;;5.50;;
5977;SDS011;3015;51.390;12.256;2023-01-09T05:48:30;5.60;;;5.10;;
5977;SDS011;3015;51.390;12.256;2023-01-09T05:50:55;4.80;;;4.43;;
5977;SDS011;3015;51.390;12.256;2023-01-09T05:53:21;5.50;;;5.00;;
5977;SDS011;3015;51.390;12.256;2023-01-09T05:55:46;5.27;;;4.80;;
5977;SDS011;3015;51.390;12.256;2023-01-09T05:58:12;4.93;;;4.53;;
5977;SDS011;3015;51.390;12.256;2023-01-09T06:00:38;6.10;;;5.53;;
5977;SDS011;3015;51.390;12.256;2023-01-09T06:03:03;6.80;;;6.13;;
5977;SDS011;3015;51.390;12.256;2023-01-09T06:05:29;6.50;;;5.90;;
5977;SDS011;3015;51.390;12.256;2023-01-09T06:07:55;6.30;;;5.77;;
5977;SDS011;3015;51.390;12.256;2023-01-09T06:10:20;6.50;;;5.93;;
5977;SDS011;3015;51.390;12.256;2023-01-09T06:12:46;6.43;;;5.83;;
5977;SDS011;3015;51.390;12.256;2023-01-09T06:15:13;7.45;;;6.75;;
5977;SDS011;3015;51.390;12.256;2023-01-09T06:17:39;7.77;;;7.07;;
5977;SDS011;3015;51.390;12.256;2023-01-09T06:20:05;5.60;;;5.17;;
5977;SDS011;3015;51.390;12.256;2023-01-09T06:22:31;6.95;;;6.35;;
5977;SDS011;3015;51.390;12.256;2023-01-09T06:24:57;6.33;;;5.93;;
5977;SDS011;3015;51.390;12.256;2023-01-09T06:27:22;6.60;;;6.00;;
5977;SDS011;3015;51.390;12.256;2023-01-09T06:29:48;7.80;;;6.90;;
5977;SDS011;3015;51.390;12.256;2023-01-09T06:32:14;6.80;;;6.20;;
5977;SDS011;3015;51.390;12.256;2023-01-09T06:34:39;8.30;;;6.80;;
5977;SDS011;3015;51.390;12.256;2023-01-09T06:37:05;6.63;;;6.03;;
5977;SDS011;3015;51.390;12.256;2023-01-09T06:39:30;8.07;;;7.27;;
5977;SDS011;3015;51.390;12.256;2023-01-09T06:41:56;7.77;;;7.07;;
5977;SDS011;3015;51.390;12.256;2023-01-09T06:44:22;8.60;;;6.10;;
5977;SDS011;3015;51.390;12.256;2023-01-09T06:46:47;6.90;;;6.30;;
5977;SDS011;3015;51.390;12.256;2023-01-09T06:49:13;6.17;;;5.50;;
5977;SDS011;3015;51.390;12.256;2023-01-09T06:51:38;7.00;;;6.30;;
5977;SDS011;3015;51.390;12.256;2023-01-09T06:54:04;6.80;;;6.00;;
5977;SDS011;3015;51.390;12.256;2023-01-09T06:56:30;8.37;;;6.63;;
5977;SDS011;3015;51.390;12.256;2023-01-09T06:58:55;7.00;;;6.30;;
5977;SDS011;3015;51.390;12.256;2023-01-09T07:01:21;6.67;;;6.07;;
5977;SDS011;3015;51.390;12.256;2023-01-09T07:03:46;6.60;;;6.00;;
5977;SDS011;3015;51.390;12.256;2023-01-09T07:06:12;6.80;;;6.13;;
5977;SDS011;3015;51.390;12.256;2023-01-09T07:08:39;6.40;;;5.80;;
5977;SDS011;3015;51.390;12.256;2023-01-09T07:11:04;6.27;;;5.67;;
5977;SDS011;3015;51.390;12.256;2023-01-09T07:13:30;7.13;;;5.88;;
5977;SDS011;3015;51.390;12.256;2023-01-09T07:15:56;6.63;;;5.87;;
5977;SDS011;3015;51.390;12.256;2023-01-09T07:18:22;7.37;;;6.77;;
5977;SDS011;3015;51.390;12.256;2023-01-09T07:20:47;5.43;;;4.90;;
5977;SDS011;3015;51.390;12.256;2023-01-09T07:23:13;6.10;;;5.50;;
5977;SDS011;3015;51.390;12.256;2023-01-09T07:25:40;5.22;;;4.38;;
5977;SDS011;3015;51.390;12.256;2023-01-09T07:28:06;6.95;;;5.82;;
5977;SDS011;3015;51.390;12.256;2023-01-09T07:30:32;6.00;;;4.80;;
5977;SDS011;3015;51.390;12.256;2023-01-09T07:32:58;6.13;;;5.00;;
5977;SDS011;3015;51.390;12.256;2023-01-09T07:35:23;5.77;;;5.27;;
5977;SDS011;3015;51.390;12.256;2023-01-09T07:37:49;6.13;;;5.53;;
5977;SDS011;3015;51.390;12.256;2023-01-09T07:40:15;6.30;;;5.07;;
5977;SDS011;3015;51.390;12.256;2023-01-09T07:42:40;5.00;;;4.50;;
5977;SDS011;3015;51.390;12.256;2023-01-09T07:45:06;5.13;;;4.83;;
5977;SDS011;3015;51.390;12.256;2023-01-09T07:47:32;4.05;;;3.75;;
5977;SDS011;3015;51.390;12.256;2023-01-09T07:49:58;4.27;;;3.90;;
5977;SDS011;3015;51.390;12.256;2023-01-09T07:52:24;4.03;;;3.73;;
5977;SDS011;3015;51.390;12.256;2023-01-09T07:54:49;4.30;;;3.90;;
5977;SDS011;3015;51.390;12.256;2023-01-09T07:57:15;3.40;;;3.13;;
5977;SDS011;3015;51.390;12.256;2023-01-09T07:59:41;4.20;;;3.80;;
5977;SDS011;3015;51.390;12.256;2023-01-09T08:02:07;3.60;;;3.40;;
5977;SDS011;3015;51.390;12.256;2023-01-09T08:04:33;3.05;;;2.85;;
5977;SDS011;3015;51.390;12.256;2023-01-09T08:06:59;4.63;;;4.23;;
5977;SDS011;3015;51.390;12.256;2023-01-09T08:09:27;4.30;;;3.67;;
5977;SDS011;3015;51.390;12.256;2023-01-09T08:11:52;3.47;;;3.17;;
5977;SDS011;3015;51.390;12.256;2023-01-09T08:14:18;3.00;;;2.80;;
5977;SDS011;3015;51.390;12.256;2023-01-09T08:16:44;2.00;;;1.90;;
5977;SDS011;3015;51.390;12.256;2023-01-09T08:19:09;1.87;;;1.73;;
5977;SDS011;3015;51.390;12.256;2023-01-09T08:21:36;2.25;;;2.15;;
5977;SDS011;3015;51.390;12.256;2023-01-09T08:24:02;2.05;;;1.85;;
5977;SDS011;3015;51.390;12.256;2023-01-09T08:26:28;2.10;;;2.00;;
5977;SDS011;3015;51.390;12.256;2023-01-09T08:28:53;1.80;;;1.70;;
5977;SDS011;3015;51.390;12.256;2023-01-09T08:31:19;2.00;;;1.90;;
5977;SDS011;3015;51.390;12.256;2023-01-09T08:33:45;2.50;;;1.97;;
5977;SDS011;3015;51.390;12.256;2023-01-09T08:36:10;4.30;;;2.10;;
5977;SDS011;3015;51.390;12.256;2023-01-09T08:38:36;2.37;;;2.17;;
5977;SDS011;3015;51.390;12.256;2023-01-09T08:41:01;1.87;;;1.77;;
5977;SDS011;3015;51.390;12.256;2023-01-09T08:43:50;1.70;;;1.60;;
5977;SDS011;3015;51.390;12.256;2023-01-09T08:46:34;2.90;;;2.72;;
5977;SDS011;3015;51.390;12.256;2023-01-09T08:49:18;3.03;;;2.30;;
5977;SDS011;3015;51.390;12.256;2023-01-09T08:51:44;2.07;;;1.97;;
5977;SDS011;3015;51.390;12.256;2023-01-09T08:54:10;2.20;;;2.10;;
5977;SDS011;3015;51.390;12.256;2023-01-09T08:56:35;2.17;;;2.07;;
5977;SDS011;3015;51.390;12.256;2023-01-09T08:59:01;2.13;;;2.00;;
5977;SDS011;3015;51.390;12.256;2023-01-09T09:01:27;2.10;;;2.00;;
5977;SDS011;3015;51.390;12.256;2023-01-09T09:03:52;2.50;;;2.30;;
5977;SDS011;3015;51.390;12.256;2023-01-09T09:06:18;3.67;;;3.40;;
5977;SDS011;3015;51.390;12.256;2023-01-09T09:08:43;4.30;;;4.00;;
5977;SDS011;3015;51.390;12.256;2023-01-09T09:11:09;3.73;;;3.50;;
5977;SDS011;3015;51.390;12.256;2023-01-09T09:13:35;2.55;;;2.35;;
5977;SDS011;3015;51.390;12.256;2023-01-09T09:16:01;1.80;;;1.70;;
5977;SDS011;3015;51.390;12.256;2023-01-09T09:18:26;1.90;;;1.80;;
5977;SDS011;3015;51.390;12.256;2023-01-09T09:20:52;2.30;;;2.10;;
5977;SDS011;3015;51.390;12.256;2023-01-09T09:23:18;1.70;;;1.60;;
5977;SDS011;3015;51.390;12.256;2023-01-09T09:25:43;2.03;;;1.93;;
5977;SDS011;3015;51.390;12.256;2023-01-09T09:28:09;2.03;;;1.93;;
5977;SDS011;3015;51.390;12.256;2023-01-09T09:30:35;1.83;;;1.73;;
5977;SDS011;3015;51.390;12.256;2023-01-09T09:33:02;1.52;;;1.42;;
5977;SDS011;3015;51.390;12.256;2023-01-09T09:35:28;2.50;;;1.83;;
5977;SDS011;3015;51.390;12.256;2023-01-09T09:37:57;1.40;;;1.40;;
5977;SDS011;3015;51.390;12.256;2023-01-09T09:47:02;1.17;;;1.17;;
5977;SDS011;3015;51.390;12.256;2023-01-09T09:52:28;1.27;;;1.27;;
5977;SDS011;3015;51.390;12.256;2023-01-09T09:54:58;1.10;;;1.10;;
5977;SDS011;3015;51.390;12.256;2023-01-09T09:57:31;1.60;;;1.50;;
5977;SDS011;3015;51.390;12.256;2023-01-09T10:00:01;1.10;;;1.10;;
5977;SDS011;3015;51.390;12.256;2023-01-09T10:02:36;2.97;;;1.95;;
5977;SDS011;3015;51.390;12.256;2023-01-09T10:07:41;2.58;;;1.42;;
5977;SDS011;3015;51.390;12.256;2023-01-09T10:10:18;1.20;;;1.10;;
5977;SDS011;3015;51.390;12.256;2023-01-09T10:12:58;1.00;;;1.00;;
5977;SDS011;3015;51.390;12.256;2023-01-09T10:15:45;1.00;;;1.00;;
5977;SDS011;3015;51.390;12.256;2023-01-09T10:18:21;1.30;;;1.20;;
5977;SDS011;3015;51.390;12.256;2023-01-09T10:21:14;1.70;;;1.60;;
5977;SDS011;3015;51.390;12.256;2023-01-09T10:26:45;1.20;;;1.10;;
5977;SDS011;3015;51.390;12.256;2023-01-09T10:37:17;1.38;;;1.27;;
5977;SDS011;3015;51.390;12.256;2023-01-09T10:39:57;1.45;;;1.20;;
5977;SDS011;3015;51.390;12.256;2023-01-09T10:51:15;1.27;;;1.17;;
5977;SDS011;3015;51.390;12.256;2023-01-09T10:53:50;1.25;;;1.10;;
5977;SDS011;3015;51.390;12.256;2023-01-09T10:56:22;1.00;;;0.90;;
5977;SDS011;3015;51.390;12.256;2023-01-09T10:58:50;1.10;;;1.10;;
5977;SDS011;3015;51.390;12.256;2023-01-09T11:01:23;1.75;;;1.42;;
5977;SDS011;3015;51.390;12.256;2023-01-09T11:03:49;1.15;;;1.15;;
5977;SDS011;3015;51.390;12.256;2023-01-09T11:06:21;2.60;;;2.50;;
5977;SDS011;3015;51.390;12.256;2023-01-09T11:08:55;1.60;;;1.50;;
5977;SDS011;3015;51.390;12.256;2023-01-09T11:11:30;1.30;;;1.30;;
5977;SDS011;3015;51.390;12.256;2023-01-09T11:14:12;1.25;;;1.15;;
5977;SDS011;3015;51.390;12.256;2023-01-09T11:19:21;1.60;;;1.50;;
5977;SDS011;3015;51.390;12.256;2023-01-09T11:21:47;2.80;;;1.65;;
5977;SDS011;3015;51.390;12.256;2023-01-09T11:26:49;1.55;;;1.45;;
5977;SDS011;3015;51.390;12.256;2023-01-09T11:29:18;1.30;;;1.20;;
5977;SDS011;3015;51.390;12.256;2023-01-09T11:31:52;1.52;;;1.42;;
5977;SDS011;3015;51.390;12.256;2023-01-09T11:34:20;2.85;;;1.35;;
5977;SDS011;3015;51.390;12.256;2023-01-09T11:36:49;1.30;;;1.20;;
5977;SDS011;3015;51.390;12.256;2023-01-09T11:39:26;1.42;;;1.33;;
5977;SDS011;3015;51.390;12.256;2023-01-09T11:41:57;2.20;;;1.40;;
5977;SDS011;3015;51.390;12.256;2023-01-09T11:44:26;1.50;;;1.23;;
5977;SDS011;3015;51.390;12.256;2023-01-09T11:46:52;1.40;;;1.30;;
5977;SDS011;3015;51.390;12.256;2023-01-09T11:49:22;1.30;;;1.20;;
5977;SDS011;3015;51.390;12.256;2023-01-09T11:54:46;1.50;;;1.40;;
5977;SDS011;3015;51.390;12.256;2023-01-09T11:57:19;1.40;;;1.30;;
5977;SDS011;3015;51.390;12.256;2023-01-09T11:59:46;1.13;;;1.13;;
5977;SDS011;3015;51.390;12.256;2023-01-09T12:07:53;1.50;;;1.50;;
5977;SDS011;3015;51.390;12.256;2023-01-09T12:10:42;1.77;;;1.67;;
5977;SDS011;3015;51.390;12.256;2023-01-09T12:13:17;1.70;;;1.60;;
5977;SDS011;3015;51.390;12.256;2023-01-09T12:15:54;1.75;;;1.40;;
5977;SDS011;3015;51.390;12.256;2023-01-09T12:21:31;1.83;;;1.73;;
5977;SDS011;3015;51.390;12.256;2023-01-09T12:27:11;1.40;;;1.30;;
5977;SDS011;3015;51.390;12.256;2023-01-09T12:35:50;1.63;;;1.48;;
5977;SDS011;3015;51.390;12.256;2023-01-09T12:38:41;1.23;;;1.10;;
5977;SDS011;3015;51.390;12.256;2023-01-09T12:55:41;2.10;;;1.70;;
5977;SDS011;3015;51.390;12.256;2023-01-09T12:58:13;1.50;;;1.40;;
5977;SDS011;3015;51.390;12.256;2023-01-09T13:00:55;1.53;;;1.43;;
5977;SDS011;3015;51.390;12.256;2023-01-09T13:05:56;1.88;;;1.40;;
5977;SDS011;3015;51.390;12.256;2023-01-09T13:14:00;1.40;;;1.30;;
5977;SDS011;3015;51.390;12.256;2023-01-09T13:16:37;2.22;;;1.40;;
5977;SDS011;3015;51.390;12.256;2023-01-09T13:19:15;1.13;;;1.10;;
5977;SDS011;3015;51.390;12.256;2023-01-09T13:21:47;1.92;;;1.30;;
5977;SDS011;3015;51.390;12.256;2023-01-09T13:25:18;1.20;;;1.10;;
5977;SDS011;3015;51.390;12.256;2023-01-09T13:27:26;0.95;;;0.95;;
5977;SDS011;3015;51.390;12.256;2023-01-09T13:30:05;1.20;;;1.20;;
5977;SDS011;3015;51.390;12.256;2023-01-09T13:35:10;1.40;;;1.20;;
5977;SDS011;3015;51.390;12.256;2023-01-09T13:37:37;1.70;;;1.30;;
5977;SDS011;3015;51.390;12.256;2023-01-09T13:40:04;1.50;;;1.40;;
5977;SDS011;3015;51.390;12.256;2023-01-09T13:42:57;1.20;;;1.10;;
5977;SDS011;3015;51.390;12.256;2023-01-09T13:45:33;2.47;;;1.60;;
5977;SDS011;3015;51.390;12.256;2023-01-09T13:50:41;2.28;;;1.38;;
5977;SDS011;3015;51.390;12.256;2023-01-09T14:06:33;1.58;;;1.10;;
5977;SDS011;3015;51.390;12.256;2023-01-09T14:09:42;1.00;;;0.97;;
5977;SDS011;3015;51.390;12.256;2023-01-09T14:11:48;1.90;;;1.00;;
5977;SDS011;3015;51.390;12.256;2023-01-09T14:14:27;2.47;;;1.10;;
5977;SDS011;3015;51.390;12.256;2023-01-09T14:16:57;1.00;;;1.00;;
5977;SDS011;3015;51.390;12.256;2023-01-09T14:21:58;1.30;;;1.20;;
5977;SDS011;3015;51.390;12.256;2023-01-09T14:24:31;2.03;;;1.55;;
5977;SDS011;3015;51.390;12.256;2023-01-09T14:30:36;1.23;;;1.13;;
5977;SDS011;3015;51.390;12.256;2023-01-09T14:38:34;1.55;;;1.40;;
5977;SDS011;3015;51.390;12.256;2023-01-09T14:41:20;1.70;;;1.50;;
5977;SDS011;3015;51.390;12.256;2023-01-09T14:44:51;1.85;;;1.60;;
5977;SDS011;3015;51.390;12.256;2023-01-09T14:53:09;1.60;;;1.50;;
5977;SDS011;3015;51.390;12.256;2023-01-09T14:55:57;1.55;;;1.45;;
5977;SDS011;3015;51.390;12.256;2023-01-09T14:58:25;1.48;;;1.38;;
5977;SDS011;3015;51.390;12.256;2023-01-09T15:01:04;1.58;;;1.48;;
5977;SDS011;3015;51.390;12.256;2023-01-09T15:03:43;1.50;;;1.40;;
5977;SDS011;3015;51.390;12.256;2023-01-09T15:06:24;1.50;;;1.40;;
5977;SDS011;3015;51.390;12.256;2023-01-09T15:11:51;2.15;;;2.05;;
5977;SDS011;3015;51.390;12.256;2023-01-09T15:14:24;1.70;;;1.60;;
5977;SDS011;3015;51.390;12.256;2023-01-09T15:16:56;1.70;;;1.60;;
5977;SDS011;3015;51.390;12.256;2023-01-09T15:19:23;2.28;;;1.65;;
5977;SDS011;3015;51.390;12.256;2023-01-09T15:21:59;2.43;;;2.23;;
5977;SDS011;3015;51.390;12.256;2023-01-09T15:24:28;1.60;;;1.50;;
5977;SDS011;3015;51.390;12.256;2023-01-09T15:26:57;1.48;;;1.38;;
5977;SDS011;3015;51.390;12.256;2023-01-09T15:29:46;1.85;;;1.75;;
5977;SDS011;3015;51.390;12.256;2023-01-09T15:32:25;2.67;;;2.47;;
5977;SDS011;3015;51.390;12.256;2023-01-09T15:34:53;2.20;;;2.10;;
5977;SDS011;3015;51.390;12.256;2023-01-09T15:37:26;2.80;;;2.70;;
5977;SDS011;3015;51.390;12.256;2023-01-09T15:39:56;2.67;;;2.58;;
5977;SDS011;3015;51.390;12.256;2023-01-09T15:42:29;1.88;;;1.77;;
5977;SDS011;3015;51.390;12.256;2023-01-09T15:46:01;1.85;;;1.42;;
5977;SDS011;3015;51.390;12.256;2023-01-09T15:48:20;1.55;;;1.45;;
5977;SDS011;3015;51.390;12.256;2023-01-09T15:50:48;1.50;;;1.20;;
5977;SDS011;3015;51.390;12.256;2023-01-09T15:53:19;2.10;;;1.98;;
5977;SDS011;3015;51.390;12.256;2023-01-09T15:56:31;3.92;;;3.15;;
5977;SDS011;3015;51.390;12.256;2023-01-09T15:58:45;2.80;;;2.58;;
5977;SDS011;3015;51.390;12.256;2023-01-09T16:01:23;6.97;;;5.35;;
5977;SDS011;3015;51.390;12.256;2023-01-09T16:04:08;4.88;;;4.47;;
5977;SDS011;3015;51.390;12.256;2023-01-09T16:11:43;2.47;;;2.38;;
5977;SDS011;3015;51.390;12.256;2023-01-09T16:16:43;1.83;;;1.73;;
5977;SDS011;3015;51.390;12.256;2023-01-09T16:21:57;1.52;;;1.52;;
5977;SDS011;3015;51.390;12.256;2023-01-09T16:24:24;3.20;;;2.50;;
5977;SDS011;3015;51.390;12.256;2023-01-09T16:29:57;6.28;;;2.92;;
5977;SDS011;3015;51.390;12.256;2023-01-09T16:32:29;2.08;;;1.60;;
5977;SDS011;3015;51.390;12.256;2023-01-09T16:35:00;1.67;;;1.58;;
5977;SDS011;3015;51.390;12.256;2023-01-09T16:37:30;2.78;;;2.00;;
5977;SDS011;3015;51.390;12.256;2023-01-09T16:42:41;1.80;;;1.70;;
5977;SDS011;3015;51.390;12.256;2023-01-09T16:45:29;1.88;;;1.77;;
5977;SDS011;3015;51.390;12.256;2023-01-09T16:47:55;1.92;;;1.83;;
5977;SDS011;3015;51.390;12.256;2023-01-09T16:50:22;1.77;;;1.67;;
5977;SDS011;3015;51.390;12.256;2023-01-09T16:52:49;1.90;;;1.80;;
5977;SDS011;3015;51.390;12.256;2023-01-09T16:55:15;2.00;;;1.90;;
5977;SDS011;3015;51.390;12.256;2023-01-09T16:57:41;1.87;;;1.60;;
5977;SDS011;3015;51.390;12.256;2023-01-09T17:00:16;1.97;;;1.87;;
5977;SDS011;3015;51.390;12.256;2023-01-09T17:02:43;1.80;;;1.70;;
5977;SDS011;3015;51.390;12.256;2023-01-09T17:05:09;1.90;;;1.80;;
5977;SDS011;3015;51.390;12.256;2023-01-09T17:07:35;1.37;;;1.30;;
5977;SDS011;3015;51.390;12.256;2023-01-09T17:10:02;1.98;;;1.83;;
5977;SDS011;3015;51.390;12.256;2023-01-09T17:12:28;1.73;;;1.63;;
5977;SDS011;3015;51.390;12.256;2023-01-09T17:14:54;2.00;;;1.90;;
5977;SDS011;3015;51.390;12.256;2023-01-09T17:17:20;6.70;;;2.10;;
5977;SDS011;3015;51.390;12.256;2023-01-09T17:19:46;2.30;;;2.20;;
5977;SDS011;3015;51.390;12.256;2023-01-09T17:22:12;2.00;;;1.90;;
5977;SDS011;3015;51.390;12.256;2023-01-09T17:24:38;2.25;;;2.15;;
5977;SDS011;3015;51.390;12.256;2023-01-09T17:27:25;2.00;;;1.90;;
5977;SDS011;3015;51.390;12.256;2023-01-09T17:30:13;2.35;;;2.25;;
5977;SDS011;3015;51.390;12.256;2023-01-09T17:32:39;3.42;;;2.80;;
5977;SDS011;3015;51.390;12.256;2023-01-09T17:35:05;1.80;;;1.70;;
5977;SDS011;3015;51.390;12.256;2023-01-09T17:37:31;1.87;;;1.73;;
5977;SDS011;3015;51.390;12.256;2023-01-09T17:39:57;2.20;;;2.05;;
5977;SDS011;3015;51.390;12.256;2023-01-09T17:42:27;2.20;;;2.10;;
5977;SDS011;3015;51.390;12.256;2023-01-09T17:44:53;2.40;;;2.30;;
5977;SDS011;3015;51.390;12.256;2023-01-09T17:47:20;1.90;;;1.80;;
5977;SDS011;3015;51.390;12.256;2023-01-09T17:49:46;2.00;;;1.90;;
5977;SDS011;3015;51.390;12.256;2023-01-09T17:52:12;2.00;;;1.90;;
5977;SDS011;3015;51.390;12.256;2023-01-09T17:54:38;4.00;;;1.73;;